sensor_id;sensor_type;location;lat;lon;timestamp;P1;durP1;ratioP1;P2;durP2;ratioP2
11046;SDS011;5576;50.008;10.596;2024-02-26T00:01:42;4.03;;;2.85;;
11046;SDS011;5576;50.008;10.596;2024-02-26T00:04:09;4.30;;;2.97;;
11046;SDS011;5576;50.008;10.596;2024-02-26T00:06:35;4.32;;;2.90;;
11046;SDS011;5576;50.008;10.596;2024-02-26T00:09:02;4.07;;;2.60;;
11046;SDS011;5576;50.008;10.596;2024-02-26T00:11:31;4.47;;;2.60;;
11046;SDS011;5576;50.008;10.596;2024-02-26T00:13:56;3.33;;;2.55;;
11046;SDS011;5576;50.008;10.596;2024-02-26T00:16:23;3.67;;;2.67;;
11046;SDS011;5576;50.008;10.596;2024-02-26T00:18:49;4.13;;;2.93;;
11046;SDS011;5576;50.008;10.596;2024-02-26T00:21:14;4.75;;;2.83;;
11046;SDS011;5576;50.008;10.596;2024-02-26T00:23:40;3.33;;;2.50;;
11046;SDS011;5576;50.008;10.596;2024-02-26T00:26:06;4.53;;;2.88;;
11046;SDS011;5576;50.008;10.596;2024-02-26T00:28:33;3.10;;;2.43;;
11046;SDS011;5576;50.008;10.596;2024-02-26T00:30:59;4.38;;;2.90;;
11046;SDS011;5576;50.008;10.596;2024-02-26T00:33:24;3.13;;;2.70;;
11046;SDS011;5576;50.008;10.596;2024-02-26T00:35:50;3.50;;;2.50;;
11046;SDS011;5576;50.008;10.596;2024-02-26T00:38:16;3.63;;;2.80;;
11046;SDS011;5576;50.008;10.596;2024-02-26T00:40:42;3.85;;;3.03;;
11046;SDS011;5576;50.008;10.596;2024-02-26T00:43:08;3.87;;;2.60;;
11046;SDS011;5576;50.008;10.596;2024-02-26T00:45:33;3.95;;;3.00;;
11046;SDS011;5576;50.008;10.596;2024-02-26T00:47:59;4.47;;;3.33;;
11046;SDS011;5576;50.008;10.596;2024-02-26T00:50:33;5.15;;;3.30;;
11046;SDS011;5576;50.008;10.596;2024-02-26T00:52:59;5.97;;;3.60;;
11046;SDS011;5576;50.008;10.596;2024-02-26T00:55:25;4.70;;;3.40;;
11046;SDS011;5576;50.008;10.596;2024-02-26T00:57:51;5.10;;;3.40;;
11046;SDS011;5576;50.008;10.596;2024-02-26T01:00:17;5.95;;;4.25;;
11046;SDS011;5576;50.008;10.596;2024-02-26T01:02:43;6.60;;;4.18;;
11046;SDS011;5576;50.008;10.596;2024-02-26T01:05:12;6.70;;;4.05;;
11046;SDS011;5576;50.008;10.596;2024-02-26T01:07:38;6.82;;;4.00;;
11046;SDS011;5576;50.008;10.596;2024-02-26T01:10:05;5.20;;;3.45;;
11046;SDS011;5576;50.008;10.596;2024-02-26T01:12:33;5.72;;;3.42;;
11046;SDS011;5576;50.008;10.596;2024-02-26T01:14:59;4.88;;;3.10;;
11046;SDS011;5576;50.008;10.596;2024-02-26T01:17:28;2.97;;;2.33;;
11046;SDS011;5576;50.008;10.596;2024-02-26T01:19:53;3.55;;;2.70;;
11046;SDS011;5576;50.008;10.596;2024-02-26T01:22:19;3.57;;;2.47;;
11046;SDS011;5576;50.008;10.596;2024-02-26T01:24:45;3.70;;;2.50;;
11046;SDS011;5576;50.008;10.596;2024-02-26T01:27:11;3.28;;;2.35;;
11046;SDS011;5576;50.008;10.596;2024-02-26T01:29:39;4.17;;;2.47;;
11046;SDS011;5576;50.008;10.596;2024-02-26T01:32:05;3.78;;;2.42;;
11046;SDS011;5576;50.008;10.596;2024-02-26T01:34:31;3.85;;;2.65;;
11046;SDS011;5576;50.008;10.596;2024-02-26T01:36:57;2.80;;;2.10;;
11046;SDS011;5576;50.008;10.596;2024-02-26T01:39:23;2.65;;;2.20;;
11046;SDS011;5576;50.008;10.596;2024-02-26T01:41:49;3.33;;;2.27;;
11046;SDS011;5576;50.008;10.596;2024-02-26T01:44:15;3.63;;;2.25;;
11046;SDS011;5576;50.008;10.596;2024-02-26T01:46:40;3.65;;;2.30;;
11046;SDS011;5576;50.008;10.596;2024-02-26T01:49:07;3.17;;;2.13;;
11046;SDS011;5576;50.008;10.596;2024-02-26T01:51:37;3.30;;;2.05;;
11046;SDS011;5576;50.008;10.596;2024-02-26T01:54:05;2.67;;;1.90;;
11046;SDS011;5576;50.008;10.596;2024-02-26T01:56:32;3.00;;;2.08;;
11046;SDS011;5576;50.008;10.596;2024-02-26T01:59:00;3.03;;;2.00;;
11046;SDS011;5576;50.008;10.596;2024-02-26T02:01:27;2.78;;;1.70;;
11046;SDS011;5576;50.008;10.596;2024-02-26T02:03:57;3.50;;;2.15;;
11046;SDS011;5576;50.008;10.596;2024-02-26T02:06:24;3.13;;;2.10;;
11046;SDS011;5576;50.008;10.596;2024-02-26T02:08:52;2.80;;;1.95;;
11046;SDS011;5576;50.008;10.596;2024-02-26T02:11:19;2.83;;;1.95;;
11046;SDS011;5576;50.008;10.596;2024-02-26T02:13:44;3.30;;;2.33;;
11046;SDS011;5576;50.008;10.596;2024-02-26T02:16:10;4.15;;;3.00;;
11046;SDS011;5576;50.008;10.596;2024-02-26T02:18:36;4.90;;;3.00;;
11046;SDS011;5576;50.008;10.596;2024-02-26T02:21:02;3.95;;;2.70;;
11046;SDS011;5576;50.008;10.596;2024-02-26T02:23:29;4.63;;;2.90;;
11046;SDS011;5576;50.008;10.596;2024-02-26T02:25:55;4.28;;;3.10;;
11046;SDS011;5576;50.008;10.596;2024-02-26T02:28:22;5.38;;;2.88;;
11046;SDS011;5576;50.008;10.596;2024-02-26T02:30:50;3.78;;;2.38;;
11046;SDS011;5576;50.008;10.596;2024-02-26T02:33:16;5.07;;;2.80;;
11046;SDS011;5576;50.008;10.596;2024-02-26T02:35:42;3.83;;;2.20;;
11046;SDS011;5576;50.008;10.596;2024-02-26T02:38:08;3.60;;;2.50;;
11046;SDS011;5576;50.008;10.596;2024-02-26T02:40:34;3.20;;;2.47;;
11046;SDS011;5576;50.008;10.596;2024-02-26T02:43:00;3.83;;;2.57;;
11046;SDS011;5576;50.008;10.596;2024-02-26T02:45:27;4.20;;;2.70;;
11046;SDS011;5576;50.008;10.596;2024-02-26T02:47:53;3.77;;;2.53;;
11046;SDS011;5576;50.008;10.596;2024-02-26T02:50:19;3.35;;;2.58;;
11046;SDS011;5576;50.008;10.596;2024-02-26T02:52:45;3.45;;;2.72;;
11046;SDS011;5576;50.008;10.596;2024-02-26T02:55:11;3.53;;;2.50;;
11046;SDS011;5576;50.008;10.596;2024-02-26T02:57:37;3.95;;;2.60;;
11046;SDS011;5576;50.008;10.596;2024-02-26T03:00:07;3.97;;;2.42;;
11046;SDS011;5576;50.008;10.596;2024-02-26T03:02:33;4.03;;;2.47;;
11046;SDS011;5576;50.008;10.596;2024-02-26T03:05:01;4.47;;;2.70;;
11046;SDS011;5576;50.008;10.596;2024-02-26T03:07:27;4.70;;;2.97;;
11046;SDS011;5576;50.008;10.596;2024-02-26T03:09:53;3.47;;;2.70;;
11046;SDS011;5576;50.008;10.596;2024-02-26T03:12:19;3.83;;;2.50;;
11046;SDS011;5576;50.008;10.596;2024-02-26T03:14:45;3.50;;;2.75;;
11046;SDS011;5576;50.008;10.596;2024-02-26T03:17:11;3.87;;;2.50;;
11046;SDS011;5576;50.008;10.596;2024-02-26T03:19:37;3.47;;;2.65;;
11046;SDS011;5576;50.008;10.596;2024-02-26T03:22:02;3.05;;;2.30;;
11046;SDS011;5576;50.008;10.596;2024-02-26T03:24:28;3.90;;;2.47;;
11046;SDS011;5576;50.008;10.596;2024-02-26T03:26:54;3.55;;;2.28;;
11046;SDS011;5576;50.008;10.596;2024-02-26T03:29:20;3.63;;;2.50;;
11046;SDS011;5576;50.008;10.596;2024-02-26T03:31:46;3.47;;;2.40;;
11046;SDS011;5576;50.008;10.596;2024-02-26T03:34:11;3.40;;;2.60;;
11046;SDS011;5576;50.008;10.596;2024-02-26T03:36:39;3.78;;;2.40;;
11046;SDS011;5576;50.008;10.596;2024-02-26T03:39:04;2.90;;;2.27;;
11046;SDS011;5576;50.008;10.596;2024-02-26T03:41:34;3.75;;;2.50;;
11046;SDS011;5576;50.008;10.596;2024-02-26T03:44:00;4.25;;;2.40;;
11046;SDS011;5576;50.008;10.596;2024-02-26T03:46:26;3.35;;;2.10;;
11046;SDS011;5576;50.008;10.596;2024-02-26T03:48:52;3.30;;;2.30;;
11046;SDS011;5576;50.008;10.596;2024-02-26T03:51:18;3.42;;;2.38;;
11046;SDS011;5576;50.008;10.596;2024-02-26T03:53:43;3.15;;;2.40;;
11046;SDS011;5576;50.008;10.596;2024-02-26T03:56:11;3.30;;;2.42;;
11046;SDS011;5576;50.008;10.596;2024-02-26T03:58:38;4.27;;;2.30;;
11046;SDS011;5576;50.008;10.596;2024-02-26T04:01:04;2.97;;;2.30;;
11046;SDS011;5576;50.008;10.596;2024-02-26T04:03:32;3.22;;;2.20;;
11046;SDS011;5576;50.008;10.596;2024-02-26T04:05:58;2.97;;;2.17;;
11046;SDS011;5576;50.008;10.596;2024-02-26T04:08:24;3.23;;;2.40;;
11046;SDS011;5576;50.008;10.596;2024-02-26T04:10:49;3.42;;;2.30;;
11046;SDS011;5576;50.008;10.596;2024-02-26T04:13:15;3.50;;;2.37;;
11046;SDS011;5576;50.008;10.596;2024-02-26T04:15:42;2.92;;;2.30;;
11046;SDS011;5576;50.008;10.596;2024-02-26T04:18:08;5.18;;;2.60;;
11046;SDS011;5576;50.008;10.596;2024-02-26T04:20:34;4.25;;;2.55;;
11046;SDS011;5576;50.008;10.596;2024-02-26T04:22:59;3.35;;;2.13;;
11046;SDS011;5576;50.008;10.596;2024-02-26T04:25:25;3.50;;;2.50;;
11046;SDS011;5576;50.008;10.596;2024-02-26T04:27:51;5.03;;;2.38;;
11046;SDS011;5576;50.008;10.596;2024-02-26T04:30:17;4.13;;;2.20;;
11046;SDS011;5576;50.008;10.596;2024-02-26T04:32:43;3.27;;;2.40;;
11046;SDS011;5576;50.008;10.596;2024-02-26T04:35:09;3.20;;;2.25;;
11046;SDS011;5576;50.008;10.596;2024-02-26T04:37:35;3.15;;;2.35;;
11046;SDS011;5576;50.008;10.596;2024-02-26T04:40:00;3.23;;;2.00;;
11046;SDS011;5576;50.008;10.596;2024-02-26T04:42:27;3.05;;;2.30;;
11046;SDS011;5576;50.008;10.596;2024-02-26T04:44:53;4.13;;;2.13;;
11046;SDS011;5576;50.008;10.596;2024-02-26T04:47:20;3.05;;;2.25;;
11046;SDS011;5576;50.008;10.596;2024-02-26T04:49:48;3.25;;;2.22;;
11046;SDS011;5576;50.008;10.596;2024-02-26T04:52:15;3.55;;;2.33;;
11046;SDS011;5576;50.008;10.596;2024-02-26T04:54:40;4.05;;;2.58;;
11046;SDS011;5576;50.008;10.596;2024-02-26T04:57:06;5.82;;;3.30;;
11046;SDS011;5576;50.008;10.596;2024-02-26T04:59:32;6.43;;;4.22;;
11046;SDS011;5576;50.008;10.596;2024-02-26T05:01:58;6.78;;;4.20;;
11046;SDS011;5576;50.008;10.596;2024-02-26T05:04:23;5.40;;;3.50;;
11046;SDS011;5576;50.008;10.596;2024-02-26T05:06:49;3.85;;;2.50;;
11046;SDS011;5576;50.008;10.596;2024-02-26T05:09:15;3.53;;;2.43;;
11046;SDS011;5576;50.008;10.596;2024-02-26T05:11:41;5.13;;;2.85;;
11046;SDS011;5576;50.008;10.596;2024-02-26T05:14:07;5.00;;;2.92;;
11046;SDS011;5576;50.008;10.596;2024-02-26T05:16:33;5.10;;;3.40;;
11046;SDS011;5576;50.008;10.596;2024-02-26T05:18:59;5.75;;;4.03;;
11046;SDS011;5576;50.008;10.596;2024-02-26T05:21:25;5.83;;;3.83;;
11046;SDS011;5576;50.008;10.596;2024-02-26T05:23:50;5.28;;;3.90;;
11046;SDS011;5576;50.008;10.596;2024-02-26T05:26:23;4.57;;;3.17;;
11046;SDS011;5576;50.008;10.596;2024-02-26T05:28:49;3.40;;;2.25;;
11046;SDS011;5576;50.008;10.596;2024-02-26T05:31:16;3.53;;;2.40;;
11046;SDS011;5576;50.008;10.596;2024-02-26T05:33:43;10.80;;;6.32;;
11046;SDS011;5576;50.008;10.596;2024-02-26T05:36:09;8.77;;;5.47;;
11046;SDS011;5576;50.008;10.596;2024-02-26T05:38:35;8.73;;;5.35;;
11046;SDS011;5576;50.008;10.596;2024-02-26T05:41:00;8.00;;;4.30;;
11046;SDS011;5576;50.008;10.596;2024-02-26T05:43:27;6.10;;;3.88;;
11046;SDS011;5576;50.008;10.596;2024-02-26T05:45:53;4.80;;;3.25;;
11046;SDS011;5576;50.008;10.596;2024-02-26T05:48:19;5.65;;;3.40;;
11046;SDS011;5576;50.008;10.596;2024-02-26T05:50:45;5.35;;;3.50;;
11046;SDS011;5576;50.008;10.596;2024-02-26T05:53:11;5.50;;;3.60;;
11046;SDS011;5576;50.008;10.596;2024-02-26T05:55:37;5.60;;;3.78;;
11046;SDS011;5576;50.008;10.596;2024-02-26T05:58:03;6.47;;;4.47;;
11046;SDS011;5576;50.008;10.596;2024-02-26T06:00:29;8.68;;;4.47;;
11046;SDS011;5576;50.008;10.596;2024-02-26T06:02:55;6.22;;;3.83;;
11046;SDS011;5576;50.008;10.596;2024-02-26T06:05:21;5.77;;;3.90;;
11046;SDS011;5576;50.008;10.596;2024-02-26T06:07:47;5.15;;;3.50;;
11046;SDS011;5576;50.008;10.596;2024-02-26T06:10:12;5.07;;;3.17;;
11046;SDS011;5576;50.008;10.596;2024-02-26T06:12:39;5.57;;;3.20;;
11046;SDS011;5576;50.008;10.596;2024-02-26T06:15:05;5.80;;;3.70;;
11046;SDS011;5576;50.008;10.596;2024-02-26T06:17:31;5.10;;;3.38;;
11046;SDS011;5576;50.008;10.596;2024-02-26T06:19:57;4.05;;;3.08;;
11046;SDS011;5576;50.008;10.596;2024-02-26T06:22:24;6.37;;;3.60;;
11046;SDS011;5576;50.008;10.596;2024-02-26T06:24:50;9.18;;;5.70;;
11046;SDS011;5576;50.008;10.596;2024-02-26T06:27:16;5.38;;;3.60;;
11046;SDS011;5576;50.008;10.596;2024-02-26T06:29:42;4.67;;;3.33;;
11046;SDS011;5576;50.008;10.596;2024-02-26T06:32:07;5.47;;;3.47;;
11046;SDS011;5576;50.008;10.596;2024-02-26T06:34:33;5.30;;;3.33;;
11046;SDS011;5576;50.008;10.596;2024-02-26T06:36:59;4.63;;;2.90;;
11046;SDS011;5576;50.008;10.596;2024-02-26T06:39:24;5.93;;;3.40;;
11046;SDS011;5576;50.008;10.596;2024-02-26T06:41:51;3.30;;;2.80;;
11046;SDS011;5576;50.008;10.596;2024-02-26T06:44:23;4.13;;;3.20;;
11046;SDS011;5576;50.008;10.596;2024-02-26T06:46:50;6.18;;;3.67;;
11046;SDS011;5576;50.008;10.596;2024-02-26T06:49:15;5.90;;;4.20;;
11046;SDS011;5576;50.008;10.596;2024-02-26T06:51:41;6.43;;;4.18;;
11046;SDS011;5576;50.008;10.596;2024-02-26T06:54:07;7.30;;;4.13;;
11046;SDS011;5576;50.008;10.596;2024-02-26T06:56:33;9.38;;;6.65;;
11046;SDS011;5576;50.008;10.596;2024-02-26T06:58:58;6.80;;;5.10;;
11046;SDS011;5576;50.008;10.596;2024-02-26T07:01:24;6.60;;;4.80;;
11046;SDS011;5576;50.008;10.596;2024-02-26T07:03:50;5.10;;;4.00;;
11046;SDS011;5576;50.008;10.596;2024-02-26T07:06:16;5.10;;;3.63;;
11046;SDS011;5576;50.008;10.596;2024-02-26T07:08:41;4.93;;;3.50;;
11046;SDS011;5576;50.008;10.596;2024-02-26T07:11:07;5.03;;;3.10;;
11046;SDS011;5576;50.008;10.596;2024-02-26T07:13:34;4.65;;;3.10;;
11046;SDS011;5576;50.008;10.596;2024-02-26T07:15:59;5.60;;;3.33;;
11046;SDS011;5576;50.008;10.596;2024-02-26T07:18:25;5.03;;;3.42;;
11046;SDS011;5576;50.008;10.596;2024-02-26T07:20:51;6.13;;;4.20;;
11046;SDS011;5576;50.008;10.596;2024-02-26T07:23:17;5.27;;;3.80;;
11046;SDS011;5576;50.008;10.596;2024-02-26T07:25:42;5.55;;;3.60;;
11046;SDS011;5576;50.008;10.596;2024-02-26T07:28:09;5.40;;;3.63;;
11046;SDS011;5576;50.008;10.596;2024-02-26T07:30:35;5.25;;;3.65;;
11046;SDS011;5576;50.008;10.596;2024-02-26T07:33:01;5.23;;;3.57;;
11046;SDS011;5576;50.008;10.596;2024-02-26T07:35:27;6.30;;;4.13;;
11046;SDS011;5576;50.008;10.596;2024-02-26T07:37:53;6.95;;;3.92;;
11046;SDS011;5576;50.008;10.596;2024-02-26T07:40:19;7.80;;;4.22;;
11046;SDS011;5576;50.008;10.596;2024-02-26T07:42:44;7.70;;;3.90;;
11046;SDS011;5576;50.008;10.596;2024-02-26T07:45:10;6.82;;;4.05;;
11046;SDS011;5576;50.008;10.596;2024-02-26T07:47:36;5.75;;;4.30;;
11046;SDS011;5576;50.008;10.596;2024-02-26T07:50:06;6.13;;;4.13;;
11046;SDS011;5576;50.008;10.596;2024-02-26T07:52:33;6.40;;;3.90;;
11046;SDS011;5576;50.008;10.596;2024-02-26T07:54:59;5.95;;;3.70;;
11046;SDS011;5576;50.008;10.596;2024-02-26T07:57:24;5.82;;;3.70;;
11046;SDS011;5576;50.008;10.596;2024-02-26T07:59:50;6.70;;;3.50;;
11046;SDS011;5576;50.008;10.596;2024-02-26T08:02:16;5.73;;;3.63;;
11046;SDS011;5576;50.008;10.596;2024-02-26T08:04:42;6.20;;;3.85;;
11046;SDS011;5576;50.008;10.596;2024-02-26T08:07:08;6.88;;;4.10;;
11046;SDS011;5576;50.008;10.596;2024-02-26T08:09:34;5.37;;;3.70;;
11046;SDS011;5576;50.008;10.596;2024-02-26T08:11:59;6.38;;;4.38;;
11046;SDS011;5576;50.008;10.596;2024-02-26T08:14:25;5.40;;;3.93;;
11046;SDS011;5576;50.008;10.596;2024-02-26T08:16:51;8.60;;;5.90;;
11046;SDS011;5576;50.008;10.596;2024-02-26T08:19:17;7.70;;;5.10;;
11046;SDS011;5576;50.008;10.596;2024-02-26T08:21:43;9.07;;;5.50;;
11046;SDS011;5576;50.008;10.596;2024-02-26T08:24:09;12.23;;;7.15;;
11046;SDS011;5576;50.008;10.596;2024-02-26T08:26:35;11.68;;;6.70;;
11046;SDS011;5576;50.008;10.596;2024-02-26T08:29:00;10.68;;;6.38;;
11046;SDS011;5576;50.008;10.596;2024-02-26T08:31:26;7.15;;;4.30;;
11046;SDS011;5576;50.008;10.596;2024-02-26T08:33:53;7.22;;;3.90;;
11046;SDS011;5576;50.008;10.596;2024-02-26T08:36:18;8.88;;;5.07;;
11046;SDS011;5576;50.008;10.596;2024-02-26T08:38:45;8.20;;;4.90;;
11046;SDS011;5576;50.008;10.596;2024-02-26T08:41:11;11.03;;;6.33;;
11046;SDS011;5576;50.008;10.596;2024-02-26T08:43:37;10.60;;;6.80;;
11046;SDS011;5576;50.008;10.596;2024-02-26T08:46:03;9.88;;;6.25;;
11046;SDS011;5576;50.008;10.596;2024-02-26T08:48:29;11.00;;;6.32;;
11046;SDS011;5576;50.008;10.596;2024-02-26T08:50:55;8.90;;;5.97;;
11046;SDS011;5576;50.008;10.596;2024-02-26T08:53:21;7.47;;;4.90;;
11046;SDS011;5576;50.008;10.596;2024-02-26T08:55:46;8.18;;;4.80;;
11046;SDS011;5576;50.008;10.596;2024-02-26T08:58:12;6.77;;;4.53;;
11046;SDS011;5576;50.008;10.596;2024-02-26T09:00:38;9.05;;;4.72;;
11046;SDS011;5576;50.008;10.596;2024-02-26T09:03:04;4.60;;;3.70;;
11046;SDS011;5576;50.008;10.596;2024-02-26T09:05:30;7.90;;;5.00;;
11046;SDS011;5576;50.008;10.596;2024-02-26T09:07:55;8.17;;;5.40;;
11046;SDS011;5576;50.008;10.596;2024-02-26T09:10:21;5.88;;;3.80;;
11046;SDS011;5576;50.008;10.596;2024-02-26T09:12:47;5.32;;;4.00;;
11046;SDS011;5576;50.008;10.596;2024-02-26T09:15:13;5.33;;;3.80;;
11046;SDS011;5576;50.008;10.596;2024-02-26T09:17:39;5.65;;;3.63;;
11046;SDS011;5576;50.008;10.596;2024-02-26T09:20:05;5.53;;;3.38;;
11046;SDS011;5576;50.008;10.596;2024-02-26T09:22:34;5.13;;;3.70;;
11046;SDS011;5576;50.008;10.596;2024-02-26T09:25:03;6.10;;;4.00;;
11046;SDS011;5576;50.008;10.596;2024-02-26T09:27:29;7.07;;;4.30;;
11046;SDS011;5576;50.008;10.596;2024-02-26T09:29:55;6.63;;;4.20;;
11046;SDS011;5576;50.008;10.596;2024-02-26T09:32:21;5.82;;;4.03;;
11046;SDS011;5576;50.008;10.596;2024-02-26T09:34:47;5.77;;;3.73;;
11046;SDS011;5576;50.008;10.596;2024-02-26T09:37:12;6.60;;;3.65;;
11046;SDS011;5576;50.008;10.596;2024-02-26T09:39:38;5.20;;;3.70;;
11046;SDS011;5576;50.008;10.596;2024-02-26T09:42:04;4.45;;;3.22;;
11046;SDS011;5576;50.008;10.596;2024-02-26T09:44:34;4.22;;;3.40;;
11046;SDS011;5576;50.008;10.596;2024-02-26T09:47:04;5.18;;;3.50;;
11046;SDS011;5576;50.008;10.596;2024-02-26T09:49:33;4.63;;;3.13;;
11046;SDS011;5576;50.008;10.596;2024-02-26T09:52:00;7.00;;;4.07;;
11046;SDS011;5576;50.008;10.596;2024-02-26T09:54:28;21.25;;;10.80;;
11046;SDS011;5576;50.008;10.596;2024-02-26T09:56:59;7.90;;;4.55;;
11046;SDS011;5576;50.008;10.596;2024-02-26T09:59:28;4.60;;;3.40;;
11046;SDS011;5576;50.008;10.596;2024-02-26T10:01:58;4.43;;;3.10;;
11046;SDS011;5576;50.008;10.596;2024-02-26T10:04:25;4.93;;;3.13;;
11046;SDS011;5576;50.008;10.596;2024-02-26T10:06:52;5.78;;;3.45;;
11046;SDS011;5576;50.008;10.596;2024-02-26T10:09:18;5.47;;;3.55;;
11046;SDS011;5576;50.008;10.596;2024-02-26T10:11:45;4.45;;;2.80;;
11046;SDS011;5576;50.008;10.596;2024-02-26T10:14:14;4.63;;;2.80;;
11046;SDS011;5576;50.008;10.596;2024-02-26T10:16:39;5.10;;;3.13;;
11046;SDS011;5576;50.008;10.596;2024-02-26T10:19:06;4.27;;;2.80;;
11046;SDS011;5576;50.008;10.596;2024-02-26T10:21:32;4.32;;;2.97;;
11046;SDS011;5576;50.008;10.596;2024-02-26T10:23:57;4.40;;;3.13;;
11046;SDS011;5576;50.008;10.596;2024-02-26T10:26:23;4.18;;;2.80;;
11046;SDS011;5576;50.008;10.596;2024-02-26T10:28:49;5.97;;;2.97;;
11046;SDS011;5576;50.008;10.596;2024-02-26T10:31:15;4.80;;;3.22;;
11046;SDS011;5576;50.008;10.596;2024-02-26T10:33:42;5.03;;;3.00;;
11046;SDS011;5576;50.008;10.596;2024-02-26T10:36:08;4.70;;;2.60;;
11046;SDS011;5576;50.008;10.596;2024-02-26T10:38:35;3.60;;;2.58;;
11046;SDS011;5576;50.008;10.596;2024-02-26T10:41:02;5.10;;;2.80;;
11046;SDS011;5576;50.008;10.596;2024-02-26T10:43:29;3.90;;;2.80;;
11046;SDS011;5576;50.008;10.596;2024-02-26T10:45:55;4.13;;;2.80;;
11046;SDS011;5576;50.008;10.596;2024-02-26T10:48:21;4.90;;;2.83;;
11046;SDS011;5576;50.008;10.596;2024-02-26T10:50:47;4.03;;;2.70;;
11046;SDS011;5576;50.008;10.596;2024-02-26T10:53:17;5.00;;;3.08;;
11046;SDS011;5576;50.008;10.596;2024-02-26T10:55:48;5.25;;;2.80;;
11046;SDS011;5576;50.008;10.596;2024-02-26T10:58:22;3.97;;;2.92;;
11046;SDS011;5576;50.008;10.596;2024-02-26T11:00:50;4.20;;;2.67;;
11046;SDS011;5576;50.008;10.596;2024-02-26T11:03:16;3.43;;;2.80;;
11046;SDS011;5576;50.008;10.596;2024-02-26T11:05:45;3.50;;;2.50;;
11046;SDS011;5576;50.008;10.596;2024-02-26T11:08:13;6.60;;;3.33;;
11046;SDS011;5576;50.008;10.596;2024-02-26T11:10:40;3.83;;;2.60;;
11046;SDS011;5576;50.008;10.596;2024-02-26T11:13:07;3.63;;;2.80;;
11046;SDS011;5576;50.008;10.596;2024-02-26T11:15:35;3.97;;;2.63;;
11046;SDS011;5576;50.008;10.596;2024-02-26T11:18:02;4.33;;;2.63;;
11046;SDS011;5576;50.008;10.596;2024-02-26T11:20:29;3.50;;;2.58;;
11046;SDS011;5576;50.008;10.596;2024-02-26T11:22:57;3.97;;;3.05;;
11046;SDS011;5576;50.008;10.596;2024-02-26T11:25:23;4.43;;;2.78;;
11046;SDS011;5576;50.008;10.596;2024-02-26T11:27:50;4.05;;;2.65;;
11046;SDS011;5576;50.008;10.596;2024-02-26T11:30:22;3.33;;;2.47;;
11046;SDS011;5576;50.008;10.596;2024-02-26T11:32:50;4.38;;;2.58;;
11046;SDS011;5576;50.008;10.596;2024-02-26T11:35:17;3.25;;;2.60;;
11046;SDS011;5576;50.008;10.596;2024-02-26T11:37:51;3.65;;;2.83;;
11046;SDS011;5576;50.008;10.596;2024-02-26T11:40:19;3.83;;;2.65;;
11046;SDS011;5576;50.008;10.596;2024-02-26T11:42:44;4.07;;;2.58;;
11046;SDS011;5576;50.008;10.596;2024-02-26T11:48:16;3.20;;;2.55;;
11046;SDS011;5576;50.008;10.596;2024-02-26T11:50:48;3.67;;;2.45;;
11046;SDS011;5576;50.008;10.596;2024-02-26T11:53:32;3.63;;;2.40;;
11046;SDS011;5576;50.008;10.596;2024-02-26T11:58:47;3.60;;;2.75;;
11046;SDS011;5576;50.008;10.596;2024-02-26T12:04:07;3.72;;;2.65;;
11046;SDS011;5576;50.008;10.596;2024-02-26T12:06:41;3.78;;;2.80;;
11046;SDS011;5576;50.008;10.596;2024-02-26T12:09:08;4.45;;;2.65;;
11046;SDS011;5576;50.008;10.596;2024-02-26T12:11:38;3.15;;;2.47;;
11046;SDS011;5576;50.008;10.596;2024-02-26T12:14:07;5.13;;;2.50;;
11046;SDS011;5576;50.008;10.596;2024-02-26T12:16:38;4.30;;;2.85;;
11046;SDS011;5576;50.008;10.596;2024-02-26T12:19:06;4.55;;;2.88;;
11046;SDS011;5576;50.008;10.596;2024-02-26T12:21:34;4.32;;;2.63;;
11046;SDS011;5576;50.008;10.596;2024-02-26T12:24:16;4.80;;;2.70;;
11046;SDS011;5576;50.008;10.596;2024-02-26T12:26:45;4.43;;;2.63;;
11046;SDS011;5576;50.008;10.596;2024-02-26T12:29:12;4.22;;;2.60;;
11046;SDS011;5576;50.008;10.596;2024-02-26T12:31:39;4.70;;;2.60;;
11046;SDS011;5576;50.008;10.596;2024-02-26T12:34:06;4.15;;;2.45;;
11046;SDS011;5576;50.008;10.596;2024-02-26T12:36:34;3.80;;;2.55;;
11046;SDS011;5576;50.008;10.596;2024-02-26T12:39:01;4.07;;;2.70;;
11046;SDS011;5576;50.008;10.596;2024-02-26T12:41:31;3.92;;;2.72;;
11046;SDS011;5576;50.008;10.596;2024-02-26T12:43:57;3.35;;;2.63;;
11046;SDS011;5576;50.008;10.596;2024-02-26T12:46:24;4.83;;;2.70;;
11046;SDS011;5576;50.008;10.596;2024-02-26T12:48:50;4.15;;;2.45;;
11046;SDS011;5576;50.008;10.596;2024-02-26T12:51:16;4.15;;;2.75;;
11046;SDS011;5576;50.008;10.596;2024-02-26T12:53:42;3.50;;;2.47;;
11046;SDS011;5576;50.008;10.596;2024-02-26T12:56:10;4.32;;;2.90;;
11046;SDS011;5576;50.008;10.596;2024-02-26T12:58:38;4.10;;;2.60;;
11046;SDS011;5576;50.008;10.596;2024-02-26T13:01:05;4.25;;;2.60;;
11046;SDS011;5576;50.008;10.596;2024-02-26T13:03:32;3.53;;;2.45;;
11046;SDS011;5576;50.008;10.596;2024-02-26T13:06:00;3.15;;;2.50;;
11046;SDS011;5576;50.008;10.596;2024-02-26T13:08:26;3.33;;;2.42;;
11046;SDS011;5576;50.008;10.596;2024-02-26T13:10:51;3.65;;;2.10;;
11046;SDS011;5576;50.008;10.596;2024-02-26T13:13:27;3.72;;;2.42;;
11046;SDS011;5576;50.008;10.596;2024-02-26T13:16:10;3.50;;;2.53;;
11046;SDS011;5576;50.008;10.596;2024-02-26T13:18:40;4.28;;;2.33;;
11046;SDS011;5576;50.008;10.596;2024-02-26T13:21:07;3.45;;;2.40;;
11046;SDS011;5576;50.008;10.596;2024-02-26T13:23:36;2.97;;;2.20;;
11046;SDS011;5576;50.008;10.596;2024-02-26T13:26:02;3.40;;;2.35;;
11046;SDS011;5576;50.008;10.596;2024-02-26T13:28:28;3.15;;;2.20;;
11046;SDS011;5576;50.008;10.596;2024-02-26T13:30:55;3.75;;;2.30;;
11046;SDS011;5576;50.008;10.596;2024-02-26T13:33:22;3.33;;;2.40;;
11046;SDS011;5576;50.008;10.596;2024-02-26T13:35:49;3.42;;;2.33;;
11046;SDS011;5576;50.008;10.596;2024-02-26T13:38:15;4.00;;;2.47;;
11046;SDS011;5576;50.008;10.596;2024-02-26T13:40:42;4.13;;;2.50;;
11046;SDS011;5576;50.008;10.596;2024-02-26T13:43:07;3.45;;;2.55;;
11046;SDS011;5576;50.008;10.596;2024-02-26T13:45:34;3.93;;;2.47;;
11046;SDS011;5576;50.008;10.596;2024-02-26T13:48:04;2.63;;;2.13;;
11046;SDS011;5576;50.008;10.596;2024-02-26T13:50:31;3.35;;;2.35;;
11046;SDS011;5576;50.008;10.596;2024-02-26T13:52:57;3.22;;;2.42;;
11046;SDS011;5576;50.008;10.596;2024-02-26T13:55:25;2.72;;;2.38;;
11046;SDS011;5576;50.008;10.596;2024-02-26T13:57:53;3.00;;;2.13;;
11046;SDS011;5576;50.008;10.596;2024-02-26T14:00:20;2.70;;;2.30;;
11046;SDS011;5576;50.008;10.596;2024-02-26T14:02:46;3.03;;;2.10;;
11046;SDS011;5576;50.008;10.596;2024-02-26T14:05:12;3.00;;;2.50;;
11046;SDS011;5576;50.008;10.596;2024-02-26T14:07:38;3.53;;;2.35;;
11046;SDS011;5576;50.008;10.596;2024-02-26T14:10:04;3.08;;;2.30;;
11046;SDS011;5576;50.008;10.596;2024-02-26T14:12:31;4.22;;;2.40;;
11046;SDS011;5576;50.008;10.596;2024-02-26T14:14:56;3.00;;;2.33;;
11046;SDS011;5576;50.008;10.596;2024-02-26T14:17:25;2.70;;;2.20;;
11046;SDS011;5576;50.008;10.596;2024-02-26T14:19:51;2.85;;;2.20;;
11046;SDS011;5576;50.008;10.596;2024-02-26T14:22:17;2.70;;;1.95;;
11046;SDS011;5576;50.008;10.596;2024-02-26T14:24:43;3.00;;;2.20;;
11046;SDS011;5576;50.008;10.596;2024-02-26T14:27:09;2.70;;;2.00;;
11046;SDS011;5576;50.008;10.596;2024-02-26T14:29:39;2.72;;;2.17;;
11046;SDS011;5576;50.008;10.596;2024-02-26T14:32:06;3.35;;;2.28;;
11046;SDS011;5576;50.008;10.596;2024-02-26T14:34:32;3.45;;;2.40;;
11046;SDS011;5576;50.008;10.596;2024-02-26T14:36:58;4.30;;;2.70;;
11046;SDS011;5576;50.008;10.596;2024-02-26T14:39:24;3.30;;;2.40;;
11046;SDS011;5576;50.008;10.596;2024-02-26T14:41:49;3.38;;;2.72;;
11046;SDS011;5576;50.008;10.596;2024-02-26T14:44:15;4.27;;;2.90;;
11046;SDS011;5576;50.008;10.596;2024-02-26T14:46:41;3.33;;;2.58;;
11046;SDS011;5576;50.008;10.596;2024-02-26T14:49:07;4.28;;;2.60;;
11046;SDS011;5576;50.008;10.596;2024-02-26T14:51:33;4.25;;;2.75;;
11046;SDS011;5576;50.008;10.596;2024-02-26T14:53:58;4.85;;;3.03;;